sensor_id;sensor_type;location;lat;lon;timestamp;temperature;humidity
21666;DHT22;10994;45.486;9.190;2022-08-02T00:00:12;30.70;61.80
21666;DHT22;10994;45.486;9.190;2022-08-02T00:02:39;30.70;61.80
21666;DHT22;10994;45.486;9.190;2022-08-02T00:05:06;30.70;62.10
21666;DHT22;10994;45.486;9.190;2022-08-02T00:07:32;30.70;62.40
21666;DHT22;10994;45.486;9.190;2022-08-02T00:09:58;30.60;62.70
21666;DHT22;10994;45.486;9.190;2022-08-02T00:12:24;30.60;62.90
21666;DHT22;10994;45.486;9.190;2022-08-02T00:14:50;30.60;63.20
21666;DHT22;10994;45.486;9.190;2022-08-02T00:17:16;30.60;63.40
21666;DHT22;10994;45.486;9.190;2022-08-02T00:19:42;30.60;63.40
21666;DHT22;10994;45.486;9.190;2022-08-02T00:22:08;30.60;63.50
21666;DHT22;10994;45.486;9.190;2022-08-02T00:24:33;30.50;63.50
21666;DHT22;10994;45.486;9.190;2022-08-02T00:26:59;30.50;63.60
21666;DHT22;10994;45.486;9.190;2022-08-02T00:29:31;30.50;63.80
21666;DHT22;10994;45.486;9.190;2022-08-02T00:31:56;30.50;64.00
21666;DHT22;10994;45.486;9.190;2022-08-02T00:34:22;30.40;64.20
21666;DHT22;10994;45.486;9.190;2022-08-02T00:36:48;30.40;64.40
21666;DHT22;10994;45.486;9.190;2022-08-02T00:39:14;30.30;64.40
21666;DHT22;10994;45.486;9.190;2022-08-02T00:41:51;30.30;64.50
21666;DHT22;10994;45.486;9.190;2022-08-02T00:44:19;30.30;64.50
21666;DHT22;10994;45.486;9.190;2022-08-02T00:46:45;30.30;64.50
21666;DHT22;10994;45.486;9.190;2022-08-02T00:49:12;30.40;64.20
21666;DHT22;10994;45.486;9.190;2022-08-02T00:51:39;30.40;64.10
21666;DHT22;10994;45.486;9.190;2022-08-02T00:54:05;30.40;64.00
21666;DHT22;10994;45.486;9.190;2022-08-02T00:56:31;30.50;64.00
21666;DHT22;10994;45.486;9.190;2022-08-02T00:58:56;30.50;64.10
21666;DHT22;10994;45.486;9.190;2022-08-02T01:01:22;30.60;64.20
21666;DHT22;10994;45.486;9.190;2022-08-02T01:04:07;30.70;64.20
21666;DHT22;10994;45.486;9.190;2022-08-02T01:06:35;30.60;64.40
21666;DHT22;10994;45.486;9.190;2022-08-02T01:09:01;30.60;64.40
21666;DHT22;10994;45.486;9.190;2022-08-02T01:11:28;30.50;64.60
21666;DHT22;10994;45.486;9.190;2022-08-02T01:14:04;30.50;65.00
21666;DHT22;10994;45.486;9.190;2022-08-02T01:16:32;30.40;64.90
21666;DHT22;10994;45.486;9.190;2022-08-02T01:30:07;30.30;66.70
21666;DHT22;10994;45.486;9.190;2022-08-02T01:32:37;30.30;66.30
21666;DHT22;10994;45.486;9.190;2022-08-02T01:35:16;30.20;66.80
21666;DHT22;10994;45.486;9.190;2022-08-02T01:37:52;30.20;66.10
21666;DHT22;10994;45.486;9.190;2022-08-02T01:40:29;30.30;65.90
21666;DHT22;10994;45.486;9.190;2022-08-02T01:42:56;30.30;66.00
21666;DHT22;10994;45.486;9.190;2022-08-02T01:45:27;30.40;66.20
21666;DHT22;10994;45.486;9.190;2022-08-02T01:47:54;30.20;67.10
21666;DHT22;10994;45.486;9.190;2022-08-02T01:50:25;30.20;67.20
21666;DHT22;10994;45.486;9.190;2022-08-02T01:52:55;30.10;67.20
21666;DHT22;10994;45.486;9.190;2022-08-02T01:55:30;30.10;67.90
21666;DHT22;10994;45.486;9.190;2022-08-02T01:58:00;29.90;68.00
21666;DHT22;10994;45.486;9.190;2022-08-02T02:00:29;30.00;68.00
21666;DHT22;10994;45.486;9.190;2022-08-02T02:02:57;30.00;68.10
21666;DHT22;10994;45.486;9.190;2022-08-02T02:05:26;30.10;68.00
21666;DHT22;10994;45.486;9.190;2022-08-02T02:07:56;30.20;68.40
21666;DHT22;10994;45.486;9.190;2022-08-02T02:10:29;30.20;68.60
21666;DHT22;10994;45.486;9.190;2022-08-02T02:13:13;30.20;69.20
21666;DHT22;10994;45.486;9.190;2022-08-02T02:15:43;30.30;69.10
21666;DHT22;10994;45.486;9.190;2022-08-02T02:18:16;30.30;69.50
21666;DHT22;10994;45.486;9.190;2022-08-02T02:20:43;30.20;70.50
21666;DHT22;10994;45.486;9.190;2022-08-02T02:23:10;30.10;70.10
21666;DHT22;10994;45.486;9.190;2022-08-02T02:25:36;29.90;72.20
21666;DHT22;10994;45.486;9.190;2022-08-02T02:28:08;29.80;71.30
21666;DHT22;10994;45.486;9.190;2022-08-02T02:30:37;29.70;72.30
21666;DHT22;10994;45.486;9.190;2022-08-02T02:33:05;29.70;72.70
21666;DHT22;10994;45.486;9.190;2022-08-02T02:35:34;29.60;72.70
21666;DHT22;10994;45.486;9.190;2022-08-02T02:38:07;29.60;73.30
21666;DHT22;10994;45.486;9.190;2022-08-02T02:40:34;29.60;72.40
21666;DHT22;10994;45.486;9.190;2022-08-02T02:43:01;29.70;71.80
21666;DHT22;10994;45.486;9.190;2022-08-02T02:45:29;29.80;71.50
21666;DHT22;10994;45.486;9.190;2022-08-02T02:47:56;29.90;71.50
21666;DHT22;10994;45.486;9.190;2022-08-02T02:50:23;30.00;71.50
21666;DHT22;10994;45.486;9.190;2022-08-02T02:52:50;30.00;71.70
21666;DHT22;10994;45.486;9.190;2022-08-02T02:55:17;30.10;74.40
21666;DHT22;10994;45.486;9.190;2022-08-02T02:57:44;30.00;77.80
21666;DHT22;10994;45.486;9.190;2022-08-02T03:00:12;29.90;76.10
21666;DHT22;10994;45.486;9.190;2022-08-02T03:02:41;29.90;77.90
21666;DHT22;10994;45.486;9.190;2022-08-02T03:05:09;29.70;79.10
21666;DHT22;10994;45.486;9.190;2022-08-02T03:07:35;29.70;77.70
21666;DHT22;10994;45.486;9.190;2022-08-02T03:10:05;29.80;77.50
21666;DHT22;10994;45.486;9.190;2022-08-02T03:12:33;29.90;78.80
21666;DHT22;10994;45.486;9.190;2022-08-02T03:15:02;30.00;78.10
21666;DHT22;10994;45.486;9.190;2022-08-02T03:17:39;30.00;79.80
21666;DHT22;10994;45.486;9.190;2022-08-02T03:20:08;29.90;80.90
21666;DHT22;10994;45.486;9.190;2022-08-02T03:22:34;29.90;79.40
21666;DHT22;10994;45.486;9.190;2022-08-02T03:24:59;30.00;79.20
21666;DHT22;10994;45.486;9.190;2022-08-02T03:27:25;30.00;79.20
21666;DHT22;10994;45.486;9.190;2022-08-02T03:29:51;30.20;79.60
21666;DHT22;10994;45.486;9.190;2022-08-02T03:32:16;30.10;80.00
21666;DHT22;10994;45.486;9.190;2022-08-02T03:34:42;30.10;80.10
21666;DHT22;10994;45.486;9.190;2022-08-02T03:37:08;30.10;80.30
21666;DHT22;10994;45.486;9.190;2022-08-02T03:39:34;30.10;80.50
21666;DHT22;10994;45.486;9.190;2022-08-02T03:42:00;30.10;80.80
21666;DHT22;10994;45.486;9.190;2022-08-02T03:44:26;30.10;80.90
21666;DHT22;10994;45.486;9.190;2022-08-02T03:46:52;30.20;81.20
21666;DHT22;10994;45.486;9.190;2022-08-02T03:49:18;30.00;83.40
21666;DHT22;10994;45.486;9.190;2022-08-02T03:51:45;29.90;85.70
21666;DHT22;10994;45.486;9.190;2022-08-02T03:54:11;29.90;83.10
21666;DHT22;10994;45.486;9.190;2022-08-02T03:56:38;29.90;83.10
21666;DHT22;10994;45.486;9.190;2022-08-02T03:59:09;29.90;83.10
21666;DHT22;10994;45.486;9.190;2022-08-02T04:01:34;30.00;84.20
21666;DHT22;10994;45.486;9.190;2022-08-02T04:04:00;29.90;83.60
21666;DHT22;10994;45.486;9.190;2022-08-02T04:06:26;29.90;83.60
21666;DHT22;10994;45.486;9.190;2022-08-02T04:08:51;29.90;85.00
21666;DHT22;10994;45.486;9.190;2022-08-02T04:11:17;29.80;85.90
21666;DHT22;10994;45.486;9.190;2022-08-02T04:13:56;29.80;85.10
21666;DHT22;10994;45.486;9.190;2022-08-02T04:16:33;29.70;86.00
21666;DHT22;10994;45.486;9.190;2022-08-02T04:19:04;29.70;87.70
21666;DHT22;10994;45.486;9.190;2022-08-02T04:21:34;29.60;87.50
21666;DHT22;10994;45.486;9.190;2022-08-02T04:24:02;29.60;88.10
21666;DHT22;10994;45.486;9.190;2022-08-02T04:26:31;29.50;88.60
21666;DHT22;10994;45.486;9.190;2022-08-02T04:28:58;29.40;90.40
21666;DHT22;10994;45.486;9.190;2022-08-02T04:31:24;29.20;91.10
21666;DHT22;10994;45.486;9.190;2022-08-02T04:33:51;29.10;90.90
21666;DHT22;10994;45.486;9.190;2022-08-02T04:36:16;29.10;91.10
21666;DHT22;10994;45.486;9.190;2022-08-02T04:38:42;28.90;92.80
21666;DHT22;10994;45.486;9.190;2022-08-02T04:41:08;28.60;94.40
21666;DHT22;10994;45.486;9.190;2022-08-02T04:43:34;28.40;95.20
21666;DHT22;10994;45.486;9.190;2022-08-02T04:45:59;28.60;94.20
21666;DHT22;10994;45.486;9.190;2022-08-02T04:48:27;28.50;95.10
21666;DHT22;10994;45.486;9.190;2022-08-02T04:50:53;28.70;94.50
21666;DHT22;10994;45.486;9.190;2022-08-02T04:53:19;28.80;94.60
21666;DHT22;10994;45.486;9.190;2022-08-02T04:55:46;28.80;95.30
21666;DHT22;10994;45.486;9.190;2022-08-02T04:58:12;28.50;96.20
21666;DHT22;10994;45.486;9.190;2022-08-02T05:00:38;28.70;95.70
21666;DHT22;10994;45.486;9.190;2022-08-02T05:03:04;28.70;95.90
21666;DHT22;10994;45.486;9.190;2022-08-02T05:05:30;28.80;96.80
21666;DHT22;10994;45.486;9.190;2022-08-02T05:07:56;28.80;95.80
21666;DHT22;10994;45.486;9.190;2022-08-02T05:10:22;28.70;99.60
21666;DHT22;10994;45.486;9.190;2022-08-02T05:12:47;28.70;97.00
21666;DHT22;10994;45.486;9.190;2022-08-02T05:15:14;28.70;97.70
21666;DHT22;10994;45.486;9.190;2022-08-02T05:17:43;28.60;99.50
21666;DHT22;10994;45.486;9.190;2022-08-02T05:20:10;28.40;99.90
21666;DHT22;10994;45.486;9.190;2022-08-02T05:22:38;28.30;99.90
21666;DHT22;10994;45.486;9.190;2022-08-02T05:25:04;28.30;99.90
21666;DHT22;10994;45.486;9.190;2022-08-02T05:27:30;28.10;99.90
21666;DHT22;10994;45.486;9.190;2022-08-02T05:29:57;28.10;99.90
21666;DHT22;10994;45.486;9.190;2022-08-02T05:32:23;28.00;99.90
21666;DHT22;10994;45.486;9.190;2022-08-02T05:34:51;28.00;99.90
21666;DHT22;10994;45.486;9.190;2022-08-02T05:37:17;27.80;99.90
21666;DHT22;10994;45.486;9.190;2022-08-02T05:39:43;27.60;99.90
21666;DHT22;10994;45.486;9.190;2022-08-02T05:42:09;27.50;99.90
21666;DHT22;10994;45.486;9.190;2022-08-02T05:44:35;27.10;99.90
21666;DHT22;10994;45.486;9.190;2022-08-02T05:47:01;26.90;99.90
21666;DHT22;10994;45.486;9.190;2022-08-02T05:49:26;27.00;99.90
21666;DHT22;10994;45.486;9.190;2022-08-02T06:05:39;26.30;99.90
21666;DHT22;10994;45.486;9.190;2022-08-02T06:08:06;26.30;99.90
21666;DHT22;10994;45.486;9.190;2022-08-02T06:10:36;26.50;99.90
21666;DHT22;10994;45.486;9.190;2022-08-02T06:13:11;26.40;99.90
21666;DHT22;10994;45.486;9.190;2022-08-02T06:15:38;26.60;99.90
21666;DHT22;10994;45.486;9.190;2022-08-02T06:18:05;27.00;99.90
21666;DHT22;10994;45.486;9.190;2022-08-02T06:20:31;26.90;99.90
21666;DHT22;10994;45.486;9.190;2022-08-02T06:23:07;27.20;99.90
21666;DHT22;10994;45.486;9.190;2022-08-02T06:25:35;27.30;99.90
21666;DHT22;10994;45.486;9.190;2022-08-02T06:28:04;27.10;99.90
21666;DHT22;10994;45.486;9.190;2022-08-02T06:30:30;27.30;99.90
21666;DHT22;10994;45.486;9.190;2022-08-02T06:32:56;27.50;99.90
21666;DHT22;10994;45.486;9.190;2022-08-02T06:35:38;27.70;99.90
21666;DHT22;10994;45.486;9.190;2022-08-02T06:38:20;27.90;99.90
21666;DHT22;10994;45.486;9.190;2022-08-02T06:41:08;27.80;99.90
21666;DHT22;10994;45.486;9.190;2022-08-02T06:43:59;27.20;99.90
21666;DHT22;10994;45.486;9.190;2022-08-02T06:46:26;27.10;99.90
21666;DHT22;10994;45.486;9.190;2022-08-02T06:48:52;27.40;99.90
21666;DHT22;10994;45.486;9.190;2022-08-02T06:51:18;27.60;99.90
21666;DHT22;10994;45.486;9.190;2022-08-02T06:53:44;28.00;99.90
21666;DHT22;10994;45.486;9.190;2022-08-02T06:56:10;28.20;99.90
21666;DHT22;10994;45.486;9.190;2022-08-02T06:58:36;28.40;99.90
21666;DHT22;10994;45.486;9.190;2022-08-02T07:01:02;27.90;99.90
21666;DHT22;10994;45.486;9.190;2022-08-02T07:03:32;28.00;99.90
21666;DHT22;10994;45.486;9.190;2022-08-02T07:05:58;28.30;99.90
21666;DHT22;10994;45.486;9.190;2022-08-02T07:08:24;28.00;99.90
21666;DHT22;10994;45.486;9.190;2022-08-02T07:10:51;27.50;99.90
21666;DHT22;10994;45.486;9.190;2022-08-02T07:13:19;27.70;99.90
21666;DHT22;10994;45.486;9.190;2022-08-02T07:15:45;27.70;99.90
21666;DHT22;10994;45.486;9.190;2022-08-02T07:18:10;27.50;99.90
21666;DHT22;10994;45.486;9.190;2022-08-02T07:20:40;27.70;99.90
21666;DHT22;10994;45.486;9.190;2022-08-02T07:23:06;28.10;99.90
21666;DHT22;10994;45.486;9.190;2022-08-02T07:25:32;28.50;99.90
21666;DHT22;10994;45.486;9.190;2022-08-02T07:27:58;28.70;99.90
21666;DHT22;10994;45.486;9.190;2022-08-02T07:30:23;28.40;99.90
21666;DHT22;10994;45.486;9.190;2022-08-02T07:32:49;28.70;99.90
21666;DHT22;10994;45.486;9.190;2022-08-02T07:35:15;28.80;99.90
21666;DHT22;10994;45.486;9.190;2022-08-02T07:37:40;28.60;99.90
21666;DHT22;10994;45.486;9.190;2022-08-02T07:40:09;28.80;99.90
21666;DHT22;10994;45.486;9.190;2022-08-02T07:42:35;28.90;99.90
21666;DHT22;10994;45.486;9.190;2022-08-02T07:45:00;29.10;99.90
21666;DHT22;10994;45.486;9.190;2022-08-02T07:47:26;29.30;99.90
21666;DHT22;10994;45.486;9.190;2022-08-02T07:49:52;29.10;99.90
21666;DHT22;10994;45.486;9.190;2022-08-02T07:52:20;29.30;99.90
21666;DHT22;10994;45.486;9.190;2022-08-02T07:54:46;29.50;99.90
21666;DHT22;10994;45.486;9.190;2022-08-02T07:57:12;29.30;99.90
21666;DHT22;10994;45.486;9.190;2022-08-02T07:59:37;28.90;99.90
21666;DHT22;10994;45.486;9.190;2022-08-02T08:02:03;29.10;99.90
21666;DHT22;10994;45.486;9.190;2022-08-02T08:04:29;29.20;99.90
21666;DHT22;10994;45.486;9.190;2022-08-02T08:06:55;29.50;99.90
21666;DHT22;10994;45.486;9.190;2022-08-02T08:09:21;29.80;99.90
21666;DHT22;10994;45.486;9.190;2022-08-02T08:11:47;30.00;99.90
21666;DHT22;10994;45.486;9.190;2022-08-02T08:14:12;30.00;99.90
21666;DHT22;10994;45.486;9.190;2022-08-02T08:16:38;29.90;99.90
21666;DHT22;10994;45.486;9.190;2022-08-02T08:19:04;29.60;99.90
21666;DHT22;10994;45.486;9.190;2022-08-02T08:21:29;29.10;99.90
21666;DHT22;10994;45.486;9.190;2022-08-02T08:23:56;28.90;99.90
21666;DHT22;10994;45.486;9.190;2022-08-02T08:26:22;29.10;99.90
21666;DHT22;10994;45.486;9.190;2022-08-02T08:28:48;29.20;99.90
21666;DHT22;10994;45.486;9.190;2022-08-02T08:31:13;29.10;99.90
21666;DHT22;10994;45.486;9.190;2022-08-02T08:33:39;29.20;99.90
21666;DHT22;10994;45.486;9.190;2022-08-02T08:36:05;29.10;99.90
21666;DHT22;10994;45.486;9.190;2022-08-02T08:38:31;29.40;99.90
21666;DHT22;10994;45.486;9.190;2022-08-02T08:40:57;29.80;99.90
21666;DHT22;10994;45.486;9.190;2022-08-02T08:43:22;29.50;99.90
21666;DHT22;10994;45.486;9.190;2022-08-02T08:45:51;29.40;99.90
21666;DHT22;10994;45.486;9.190;2022-08-02T08:48:17;29.50;99.90
21666;DHT22;10994;45.486;9.190;2022-08-02T08:50:55;29.80;99.90
21666;DHT22;10994;45.486;9.190;2022-08-02T08:53:23;30.20;99.90
21666;DHT22;10994;45.486;9.190;2022-08-02T08:55:52;30.20;99.90
21666;DHT22;10994;45.486;9.190;2022-08-02T08:58:18;29.70;99.90
21666;DHT22;10994;45.486;9.190;2022-08-02T09:00:45;29.70;99.90
21666;DHT22;10994;45.486;9.190;2022-08-02T09:03:11;29.70;99.90
21666;DHT22;10994;45.486;9.190;2022-08-02T09:05:38;29.70;99.90
21666;DHT22;10994;45.486;9.190;2022-08-02T09:08:05;29.70;99.90
21666;DHT22;10994;45.486;9.190;2022-08-02T09:13:10;29.40;99.90
21666;DHT22;10994;45.486;9.190;2022-08-02T09:15:37;29.30;99.90
21666;DHT22;10994;45.486;9.190;2022-08-02T09:18:06;29.60;99.90
21666;DHT22;10994;45.486;9.190;2022-08-02T09:20:33;29.80;99.90
21666;DHT22;10994;45.486;9.190;2022-08-02T09:23:07;29.90;99.90
21666;DHT22;10994;45.486;9.190;2022-08-02T09:25:34;30.00;99.90
21666;DHT22;10994;45.486;9.190;2022-08-02T09:28:02;29.90;99.90
21666;DHT22;10994;45.486;9.190;2022-08-02T09:30:28;30.10;99.90
21666;DHT22;10994;45.486;9.190;2022-08-02T09:32:54;30.10;99.90
21666;DHT22;10994;45.486;9.190;2022-08-02T09:35:31;30.10;99.90
21666;DHT22;10994;45.486;9.190;2022-08-02T09:38:13;30.10;99.90
21666;DHT22;10994;45.486;9.190;2022-08-02T09:40:42;30.20;99.90
21666;DHT22;10994;45.486;9.190;2022-08-02T09:43:08;30.40;99.90
21666;DHT22;10994;45.486;9.190;2022-08-02T09:45:35;30.50;99.90
21666;DHT22;10994;45.486;9.190;2022-08-02T09:48:05;30.70;99.90
21666;DHT22;10994;45.486;9.190;2022-08-02T09:50:32;30.90;99.90
21666;DHT22;10994;45.486;9.190;2022-08-02T09:52:58;31.00;99.90
21666;DHT22;10994;45.486;9.190;2022-08-02T09:55:27;31.10;99.90
21666;DHT22;10994;45.486;9.190;2022-08-02T09:57:53;31.10;99.90
21666;DHT22;10994;45.486;9.190;2022-08-02T10:00:19;31.40;99.90
21666;DHT22;10994;45.486;9.190;2022-08-02T10:03:05;31.50;99.90
21666;DHT22;10994;45.486;9.190;2022-08-02T10:05:48;31.40;99.90
21666;DHT22;10994;45.486;9.190;2022-08-02T10:08:14;31.10;99.90
21666;DHT22;10994;45.486;9.190;2022-08-02T10:10:41;30.90;99.90
21666;DHT22;10994;45.486;9.190;2022-08-02T10:13:07;30.70;99.90
21666;DHT22;10994;45.486;9.190;2022-08-02T10:15:37;30.90;99.90
21666;DHT22;10994;45.486;9.190;2022-08-02T10:18:11;31.10;99.90
21666;DHT22;10994;45.486;9.190;2022-08-02T10:20:42;31.10;99.90
21666;DHT22;10994;45.486;9.190;2022-08-02T10:23:11;30.70;99.90
21666;DHT22;10994;45.486;9.190;2022-08-02T10:25:38;30.70;99.90
21666;DHT22;10994;45.486;9.190;2022-08-02T10:28:07;30.70;99.90
21666;DHT22;10994;45.486;9.190;2022-08-02T10:30:36;30.90;99.90
21666;DHT22;10994;45.486;9.190;2022-08-02T10:33:05;31.00;99.90
21666;DHT22;10994;45.486;9.190;2022-08-02T10:35:37;31.30;99.90
21666;DHT22;10994;45.486;9.190;2022-08-02T10:38:06;31.60;99.90
21666;DHT22;10994;45.486;9.190;2022-08-02T10:43:08;32.00;99.90
21666;DHT22;10994;45.486;9.190;2022-08-02T10:45:34;31.70;99.90
21666;DHT22;10994;45.486;9.190;2022-08-02T10:48:03;31.60;99.90
21666;DHT22;10994;45.486;9.190;2022-08-02T10:53:21;31.90;99.90
21666;DHT22;10994;45.486;9.190;2022-08-02T10:55:48;31.90;99.90
21666;DHT22;10994;45.486;9.190;2022-08-02T10:58:26;31.90;99.90
21666;DHT22;10994;45.486;9.190;2022-08-02T11:00:57;32.00;99.90
21666;DHT22;10994;45.486;9.190;2022-08-02T11:06:03;32.10;99.90
21666;DHT22;10994;45.486;9.190;2022-08-02T11:08:29;31.90;99.90
21666;DHT22;10994;45.486;9.190;2022-08-02T11:10:59;32.00;99.90
21666;DHT22;10994;45.486;9.190;2022-08-02T11:13:26;32.20;99.90
21666;DHT22;10994;45.486;9.190;2022-08-02T11:16:02;32.30;99.90
21666;DHT22;10994;45.486;9.190;2022-08-02T11:21:27;32.80;99.90
21666;DHT22;10994;45.486;9.190;2022-08-02T11:23:53;33.30;99.50
21666;DHT22;10994;45.486;9.190;2022-08-02T11:29:02;33.10;98.50
21666;DHT22;10994;45.486;9.190;2022-08-02T11:31:29;32.90;99.40
21666;DHT22;10994;45.486;9.190;2022-08-02T11:34:03;32.90;99.30
21666;DHT22;10994;45.486;9.190;2022-08-02T11:36:29;32.90;99.50
21666;DHT22;10994;45.486;9.190;2022-08-02T11:39:12;33.10;99.40
21666;DHT22;10994;45.486;9.190;2022-08-02T11:41:38;33.60;98.20
21666;DHT22;10994;45.486;9.190;2022-08-02T11:44:07;33.50;97.40
21666;DHT22;10994;45.486;9.190;2022-08-02T11:46:33;33.30;97.10
21666;DHT22;10994;45.486;9.190;2022-08-02T11:49:11;33.30;97.80
21666;DHT22;10994;45.486;9.190;2022-08-02T11:51:37;33.30;97.60
21666;DHT22;10994;45.486;9.190;2022-08-02T11:54:03;33.30;98.10
21666;DHT22;10994;45.486;9.190;2022-08-02T11:56:31;33.50;98.20
21666;DHT22;10994;45.486;9.190;2022-08-02T11:59:00;33.80;97.40
21666;DHT22;10994;45.486;9.190;2022-08-02T12:01:26;33.70;96.40
21666;DHT22;10994;45.486;9.190;2022-08-02T12:03:52;33.60;96.50
21666;DHT22;10994;45.486;9.190;2022-08-02T12:06:26;33.70;96.90
21666;DHT22;10994;45.486;9.190;2022-08-02T12:09:13;33.70;96.90
21666;DHT22;10994;45.486;9.190;2022-08-02T12:11:39;33.50;96.20
21666;DHT22;10994;45.486;9.190;2022-08-02T12:14:06;33.40;96.30
21666;DHT22;10994;45.486;9.190;2022-08-02T12:16:38;33.50;95.80
21666;DHT22;10994;45.486;9.190;2022-08-02T12:19:24;33.30;95.90
21666;DHT22;10994;45.486;9.190;2022-08-02T12:22:12;33.90;96.60
21666;DHT22;10994;45.486;9.190;2022-08-02T12:24:41;34.50;95.30
21666;DHT22;10994;45.486;9.190;2022-08-02T12:27:07;34.60;94.90
21666;DHT22;10994;45.486;9.190;2022-08-02T12:29:38;34.60;94.70
21666;DHT22;10994;45.486;9.190;2022-08-02T12:32:05;34.60;94.80
21666;DHT22;10994;45.486;9.190;2022-08-02T12:34:32;34.70;95.30
21666;DHT22;10994;45.486;9.190;2022-08-02T12:37:08;34.90;94.20
21666;DHT22;10994;45.486;9.190;2022-08-02T12:39:45;35.10;94.70
21666;DHT22;10994;45.486;9.190;2022-08-02T12:42:14;35.30;93.90
21666;DHT22;10994;45.486;9.190;2022-08-02T12:45:09;35.60;94.20
21666;DHT22;10994;45.486;9.190;2022-08-02T12:47:46;35.10;92.00
21666;DHT22;10994;45.486;9.190;2022-08-02T12:50:30;34.70;92.60
21666;DHT22;10994;45.486;9.190;2022-08-02T12:53:06;34.80;93.50
21666;DHT22;10994;45.486;9.190;2022-08-02T12:55:32;34.50;93.10
21666;DHT22;10994;45.486;9.190;2022-08-02T12:58:04;34.60;94.50
21666;DHT22;10994;45.486;9.190;2022-08-02T13:00:37;35.10;93.70
21666;DHT22;10994;45.486;9.190;2022-08-02T13:03:04;35.50;93.40
21666;DHT22;10994;45.486;9.190;2022-08-02T13:05:30;35.80;92.90
21666;DHT22;10994;45.486;9.190;2022-08-02T13:07:59;35.50;92.60
21666;DHT22;10994;45.486;9.190;2022-08-02T13:10:25;35.70;92.90
21666;DHT22;10994;45.486;9.190;2022-08-02T13:12:51;35.60;91.50
21666;DHT22;10994;45.486;9.190;2022-08-02T13:15:17;34.90;92.60
21666;DHT22;10994;45.486;9.190;2022-08-02T13:17:43;34.80;93.50
21666;DHT22;10994;45.486;9.190;2022-08-02T13:20:09;34.70;93.10
21666;DHT22;10994;45.486;9.190;2022-08-02T13:22:36;34.70;93.90
21666;DHT22;10994;45.486;9.190;2022-08-02T13:25:03;34.70;93.30
21666;DHT22;10994;45.486;9.190;2022-08-02T13:27:29;34.40;93.20
21666;DHT22;10994;45.486;9.190;2022-08-02T13:29:55;34.60;94.20
21666;DHT22;10994;45.486;9.190;2022-08-02T13:32:22;35.10;93.90
21666;DHT22;10994;45.486;9.190;2022-08-02T13:34:48;35.30;92.50
21666;DHT22;10994;45.486;9.190;2022-08-02T13:37:14;34.70;92.60
21666;DHT22;10994;45.486;9.190;2022-08-02T13:39:40;34.40;93.00
21666;DHT22;10994;45.486;9.190;2022-08-02T13:42:06;34.30;93.70
21666;DHT22;10994;45.486;9.190;2022-08-02T13:44:32;34.20;93.80
21666;DHT22;10994;45.486;9.190;2022-08-02T13:46:58;34.20;93.30
21666;DHT22;10994;45.486;9.190;2022-08-02T13:49:23;34.50;93.80
21666;DHT22;10994;45.486;9.190;2022-08-02T13:51:49;34.50;93.00
21666;DHT22;10994;45.486;9.190;2022-08-02T13:54:15;34.70;93.30
21666;DHT22;10994;45.486;9.190;2022-08-02T13:56:41;34.80;93.20
21666;DHT22;10994;45.486;9.190;2022-08-02T13:59:07;34.80;92.40
21666;DHT22;10994;45.486;9.190;2022-08-02T14:01:33;34.60;92.80
21666;DHT22;10994;45.486;9.190;2022-08-02T14:03:59;34.40;92.80
21666;DHT22;10994;45.486;9.190;2022-08-02T14:06:25;34.50;92.80
21666;DHT22;10994;45.486;9.190;2022-08-02T14:08:51;34.10;93.10
21666;DHT22;10994;45.486;9.190;2022-08-02T14:11:17;33.90;93.80
21666;DHT22;10994;45.486;9.190;2022-08-02T14:13:42;33.80;94.40
21666;DHT22;10994;45.486;9.190;2022-08-02T14:16:08;33.80;94.30
21666;DHT22;10994;45.486;9.190;2022-08-02T14:18:34;34.10;94.20
21666;DHT22;10994;45.486;9.190;2022-08-02T14:21:00;34.30;93.70
21666;DHT22;10994;45.486;9.190;2022-08-02T14:23:25;34.00;93.50
21666;DHT22;10994;45.486;9.190;2022-08-02T14:25:51;34.00;93.70
21666;DHT22;10994;45.486;9.190;2022-08-02T14:28:17;34.00;94.20
21666;DHT22;10994;45.486;9.190;2022-08-02T14:30:43;34.00;94.00
21666;DHT22;10994;45.486;9.190;2022-08-02T14:33:09;34.10;94.00
21666;DHT22;10994;45.486;9.190;2022-08-02T14:35:35;34.30;93.70
21666;DHT22;10994;45.486;9.190;2022-08-02T14:38:00;34.50;92.90
21666;DHT22;10994;45.486;9.190;2022-08-02T14:40:26;34.40;92.50
21666;DHT22;10994;45.486;9.190;2022-08-02T14:42:52;34.50;92.60
21666;DHT22;10994;45.486;9.190;2022-08-02T14:45:18;34.10;92.50
21666;DHT22;10994;45.486;9.190;2022-08-02T14:47:47;34.40;93.30
21666;DHT22;10994;45.486;9.190;2022-08-02T14:50:14;34.40;92.70
21666;DHT22;10994;45.486;9.190;2022-08-02T14:52:45;34.20;92.90
21666;DHT22;10994;45.486;9.190;2022-08-02T14:55:12;34.00;93.00
21666;DHT22;10994;45.486;9.190;2022-08-02T14:57:38;33.90;93.40
21666;DHT22;10994;45.486;9.190;2022-08-02T15:00:04;33.80;93.90
21666;DHT22;10994;45.486;9.190;2022-08-02T15:02:33;33.70;93.70
21666;DHT22;10994;45.486;9.190;2022-08-02T15:05:03;33.80;93.60
21666;DHT22;10994;45.486;9.190;2022-08-02T15:07:32;33.80;93.50
21666;DHT22;10994;45.486;9.190;2022-08-02T15:09:57;33.70;93.70
21666;DHT22;10994;45.486;9.190;2022-08-02T15:12:23;33.50;93.20
21666;DHT22;10994;45.486;9.190;2022-08-02T15:14:54;33.60;93.70
21666;DHT22;10994;45.486;9.190;2022-08-02T15:17:20;33.70;93.60
21666;DHT22;10994;45.486;9.190;2022-08-02T15:19:51;33.60;93.20
21666;DHT22;10994;45.486;9.190;2022-08-02T15:22:22;33.60;93.40
21666;DHT22;10994;45.486;9.190;2022-08-02T15:25:14;33.60;93.10
21666;DHT22;10994;45.486;9.190;2022-08-02T15:27:41;33.80;93.30
21666;DHT22;10994;45.486;9.190;2022-08-02T15:30:10;34.10;93.00
21666;DHT22;10994;45.486;9.190;2022-08-02T15:32:35;34.10;92.50
21666;DHT22;10994;45.486;9.190;2022-08-02T15:35:01;34.20;92.60
21666;DHT22;10994;45.486;9.190;2022-08-02T15:37:27;34.10;92.60
21666;DHT22;10994;45.486;9.190;2022-08-02T15:39:53;34.10;92.80
21666;DHT22;10994;45.486;9.190;2022-08-02T15:42:19;34.00;93.10
21666;DHT22;10994;45.486;9.190;2022-08-02T15:44:44;34.20;93.10
21666;DHT22;10994;45.486;9.190;2022-08-02T15:47:10;34.30;93.00
21666;DHT22;10994;45.486;9.190;2022-08-02T15:49:36;33.90;92.80
21666;DHT22;10994;45.486;9.190;2022-08-02T15:52:03;34.10;93.10
21666;DHT22;10994;45.486;9.190;2022-08-02T15:54:28;34.40;92.80
21666;DHT22;10994;45.486;9.190;2022-08-02T15:56:54;34.50;92.70
21666;DHT22;10994;45.486;9.190;2022-08-02T15:59:20;34.60;92.10
21666;DHT22;10994;45.486;9.190;2022-08-02T16:01:46;34.00;92.50
21666;DHT22;10994;45.486;9.190;2022-08-02T16:04:11;33.80;93.00
21666;DHT22;10994;45.486;9.190;2022-08-02T16:06:37;33.70;92.90
21666;DHT22;10994;45.486;9.190;2022-08-02T16:09:03;33.80;93.00
21666;DHT22;10994;45.486;9.190;2022-08-02T16:11:29;33.60;93.20
21666;DHT22;10994;45.486;9.190;2022-08-02T16:13:55;33.40;93.40
21666;DHT22;10994;45.486;9.190;2022-08-02T16:16:26;33.40;93.80